• Join FlightAware (Why Join?)
  • Login
  • US Flag 
01:56AM EDT


 

Airport Tracker/Info


-or-


 

Live Flight TrackerFlight Track Log ✈ SKQ45 ✈ 17-Apr-2013 ✈ KBUY - KPAH

Flight Track Log - Related Links

Times and Time Zones

All times are in EDT time to prevent confusion due to time zone crossing. See the SKQ45 flight status page for this flight to view local times or setup timezone preferences in your user account.

Time Position Orientation Groundspeed Altitude Reporting Facility
EDT Latitude Longitude Course Direction KTS MPH feet Rate Location/Type
08:40PM 36.1000 -79.8465 270° West  Level FlightAware Approximate
08:41PM 36.1121 -79.9228 282° West  Level FlightAware Approximate
08:42PM 36.1208 -79.9998 276° West  Level FlightAware Approximate
08:42PM 36.0675 -80.0161 282° West 189 217 11,800  Level Atlanta Center
08:43PM 36.1273 -80.0772 276° West  Level FlightAware Approximate
08:43PM 36.0761 -80.0875 279° West 189 217 12,400  Level Atlanta Center
08:44PM 36.1353 -80.1540 302° West  Level FlightAware Approximate
08:44PM 36.0867 -80.1589 280° West 206 237 12,900  Level Atlanta Center
08:45PM 36.1500 -80.2267 270° West  Level FlightAware Approximate
08:45PM 36.0994 -80.2328 282° West 228 262 13,000  Level Atlanta Center
08:46PM 36.1562 -80.3038 282° West  Level FlightAware Approximate
08:46PM 36.1125 -80.3197 281° West 247 284 13,000  Level Atlanta Center
08:47PM 36.1689 -80.3801 282° West  Level FlightAware Approximate
08:47PM 36.1253 -80.4039 281° West 252 290 13,800  Level Atlanta Center
08:48PM 36.1339 -80.4756 278° West 245 282 15,000 1,200 Climbing Atlanta Center
08:49PM 36.1444 -80.5572 279° West 229 264 16,300 1,020 Climbing Atlanta Center
08:50PM 36.1569 -80.6286 282° West 218 251 17,100 720 Climbing Atlanta Center
08:51PM 36.1669 -80.6925 281° West 218 251 17,800 540 Climbing Atlanta Center
08:52PM 36.1772 -80.7669 280° West 218 251 18,200 600 Climbing Atlanta Center
08:53PM 36.1897 -80.8408 282° West 218 251 19,000 720 Climbing Atlanta Center
08:54PM 36.2000 -80.9150 280° West 218 251 19,700 540 Climbing Atlanta Center
08:55PM 36.2122 -80.9919 281° West 218 251 20,100 120 Climbing Atlanta Center
08:56PM 36.2247 -81.0764 280° West 238 274 20,000  Descending Atlanta Center
08:57PM 36.2372 -81.1608 280° West 249 287 20,100  Climbing Atlanta Center
08:58PM 36.2475 -81.2481 278° West 254 292 20,100  Level Atlanta Center
08:59PM 36.2622 -81.3428 281° West 254 292 20,100  Level Atlanta Center
09:00PM 36.2744 -81.4272 280° West 254 292 20,100  Level Atlanta Center
09:01PM 36.2847 -81.5144 278° West 259 298 20,100 -60 Level Atlanta Center
09:02PM 36.2989 -81.6017 281° West 253 291 20,000 -60 Descending Atlanta Center
09:03PM 36.3089 -81.6889 278° West 253 291 20,000  Level Atlanta Center
09:04PM 36.3211 -81.7761 280° West 253 291 20,100  Climbing Atlanta Center
09:05PM 36.3331 -81.8636 280° West 258 297 20,000  Descending Atlanta Center
09:06PM 36.3431 -81.9536 278° West 258 297 20,100  Climbing Atlanta Center
09:07PM 36.3547 -82.0331 280° West 258 297 20,000  Descending Atlanta Center
09:08PM 36.3644 -82.1181 278° West 258 297 20,100  Climbing Atlanta Center
09:09PM 36.3761 -82.2078 279° West 258 297 20,100 -60 Level Atlanta Center
09:10PM 36.3900 -82.2953 281° West 253 291 20,000 -60 Descending Atlanta Center
09:11PM 36.3994 -82.3803 278° West 253 291 20,000  Level Atlanta Center
09:12PM 36.4133 -82.4675 281° West 253 291 20,000  Level Atlanta Center
09:13PM 36.4225 -82.5525 278° West 253 291 20,100  Climbing Atlanta Center
09:14PM 36.4339 -82.6375 279° West 253 291 20,000  Descending Atlanta Center
09:15PM 36.4453 -82.7225 279° West 253 291 20,100  Climbing Atlanta Center
09:16PM 36.4547 -82.8075 278° West 253 291 20,000 -60 Descending Atlanta Center
09:17PM 36.4658 -82.8925 279° West 253 291 20,000  Level Atlanta Center
09:18PM 36.4750 -82.9775 278° West 253 291 20,000  Level Atlanta Center
09:19PM 36.4861 -83.0703 278° West 253 291 20,100  Climbing Atlanta Center
09:20PM 36.4972 -83.1581 279° West 253 291 20,100 -60 Level Atlanta Center
09:21PM 36.5103 -83.2431 281° West 253 291 20,000 -60 Descending Atlanta Center
09:22PM 36.5214 -83.3283 279° West 253 291 20,000  Level Atlanta Center
09:23PM 36.5300 -83.4108 277° West 253 291 20,000  Level Atlanta Center
09:23PM 36.5356 -83.4347 286° West 248 285 20,000 60 Level Indianapolis Center
09:24PM 36.5447 -83.5197 278° West 246 283 20,100  Climbing Indianapolis Center
09:25PM 36.5556 -83.6039 279° West 247 284 20,000 -60 Descending Indianapolis Center
09:26PM 36.5656 -83.6872 279° West 244 281 20,000  Level Indianapolis Center
09:27PM 36.5753 -83.7719 278° West 246 283 20,000  Level Indianapolis Center
09:28PM 36.5856 -83.8569 279° West 248 285 20,000  Level Indianapolis Center
09:29PM 36.5950 -83.9406 278° West 245 282 20,000  Level Indianapolis Center
09:30PM 36.6047 -84.0244 278° West 244 281 20,000  Level Indianapolis Center
09:31PM 36.6144 -84.1078 278° West 243 280 20,100  Climbing Indianapolis Center
09:32PM 36.6244 -84.1925 278° West 246 283 20,000  Descending Indianapolis Center
09:33PM 36.6331 -84.2742 278° West 240 276 20,100  Climbing Indianapolis Center
09:34PM 36.6444 -84.3703 278° West 239 275 20,100 -60 Level Indianapolis Center
09:35PM 36.6547 -84.4536 279° West 240 276 20,000 -60 Descending Indianapolis Center
09:36PM 36.6619 -84.5297 277° West 239 275 20,000  Level Indianapolis Center
09:37PM 36.6728 -84.6122 279° West 241 277 20,000  Level Indianapolis Center
09:38PM 36.6803 -84.6933 277° West 237 273 20,000  Level Indianapolis Center
09:39PM 36.6903 -84.7736 279° West 235 270 20,000  Level Indianapolis Center
09:40PM 36.6997 -84.8714 277° West 239 275 20,000  Level Indianapolis Center
09:41PM 36.7094 -84.9531 278° West 239 275 20,000  Level Indianapolis Center
09:42PM 36.7178 -85.0333 277° West 235 270 20,100  Climbing Indianapolis Center
09:43PM 36.7256 -85.1156 277° West 239 275 20,000  Descending Indianapolis Center
09:44PM 36.7347 -85.1978 278° West 240 276 20,100  Climbing Indianapolis Center
09:46PM 36.7433 -85.2792 278° West 240 276 20,100 -60 Level Indianapolis Center
09:47PM 36.7528 -85.3606 278° West 240 276 20,000  Descending Indianapolis Center
09:47PM 36.7594 -85.4389 276° West 238 274 20,100  Climbing Memphis Center
09:48PM 36.7686 -85.5136 279° West 238 274 20,100 -60 Level Memphis Center
09:49PM 36.7758 -85.5961 276° West 238 274 20,000 -60 Descending Memphis Center
09:50PM 36.7856 -85.6861 278° West 238 274 20,000  Level Memphis Center
09:51PM 36.7950 -85.7683 278° West 238 274 20,000  Level Memphis Center
09:52PM 36.8019 -85.8458 276° West 233 268 20,100  Climbing Memphis Center
09:53PM 36.8131 -85.9281 280° West 233 268 20,000 -60 Descending Memphis Center
09:54PM 36.8203 -86.0081 276° West 233 268 20,000  Level Memphis Center
09:55PM 36.8272 -86.0881 276° West 233 268 20,000  Level Memphis Center
09:56PM 36.8339 -86.1681 276° West 233 268 20,100  Climbing Memphis Center
09:57PM 36.8431 -86.2478 278° West 233 268 20,100  Level Memphis Center
09:58PM 36.8519 -86.3278 278° West 233 268 20,100 -60 Level Memphis Center
09:59PM 36.8586 -86.4131 276° West 238 274 20,000 -60 Descending Memphis Center
10:00PM 36.8656 -86.4956 276° West 238 274 20,000 -360 Level Memphis Center
10:01PM 36.8744 -86.5833 277° West 245 282 19,300 -780 Descending Memphis Center
10:02PM 36.8856 -86.6736 279° West 263 303 18,500 -720 Descending Memphis Center
10:03PM 36.8900 -86.7564 274° West 268 308 17,900 -720 Descending Memphis Center
10:04PM 36.8961 -86.8261 276° West 267 307 17,300 -840 Descending Memphis Center
10:04PM 36.8989 -86.8494 278° West 274 315 17,100 -900 Descending Memphis Center
10:05PM 36.9050 -86.9219 276° West 264 304 16,400 -840 Descending Memphis Center
10:05PM 36.9078 -86.9400 281° West 268 308 16,300 -840 Descending Memphis Center
10:06PM 36.9139 -87.0122 276° West 263 303 15,600 -840 Descending Memphis Center
10:06PM 36.9142 -87.0306 271° West 268 308 15,500 -840 Descending Memphis Center
10:07PM 36.9206 -87.1053 276° West 262 302 14,800 -900 Descending Memphis Center
10:07PM 36.9250 -87.1181 294° West 268 308 14,600 -720 Descending Memphis Center
10:08PM 36.9289 -87.1881 274° West 255 293 14,100 -720 Descending Memphis Center
10:08PM 36.9314 -87.2061 280° West 268 308 13,900 -900 Descending Memphis Center
10:09PM 36.9375 -87.2786 276° West 248 285 13,200 -840 Descending Memphis Center
10:09PM 36.9378 -87.2917 272° West 254 292 13,100 -840 Descending Memphis Center
10:10PM 36.9436 -87.3667 276° West 247 284 12,400 -840 Descending Memphis Center
10:10PM 36.9461 -87.3769 287° West 247 284 12,300 -720 Descending Memphis Center
10:11PM 36.9567 -87.4700 278° West 252 290 11,500 -900 Descending Memphis Center
10:12PM 36.9581 -87.5400 271° West 250 288 10,800 -840 Descending Memphis Center
10:13PM 36.9686 -87.6306 278° West 236 272 9,900 -420 Descending Memphis Center
10:14PM 36.9742 -87.6953 276° West 193 222 9,900 -420 Level Memphis Center
10:15PM 36.9778 -87.7678 274° West 198 228 9,100 -840 Descending Memphis Center
10:16PM 36.9875 -87.8403 280° West 211 243 8,300 -840 Descending Memphis Center
10:17PM 36.9931 -87.9103 276° West 216 249 7,500 -900 Descending Memphis Center
10:18PM 36.9964 -87.9750 274° West 206 237 6,600 -900 Descending Memphis Center
10:19PM 37.0019 -88.0397 276° West 193 222 5,800 -840 Descending Memphis Center
10:20PM 37.0072 -88.1072 276° West 193 222 5,000 -840 Descending Memphis Center
10:21PM 37.0169 -88.1822 279° West 205 236 4,200 -480 Descending Memphis Center
10:22PM 37.0225 -88.2600 275° West 218 251 4,100 -60 Descending Memphis Center
10:23PM 37.0300 -88.3406 277° West 223 257 4,100  Level Memphis Center
10:24PM 37.0375 -88.4131 277° West 223 257 4,100 -300 Level Memphis Center
10:25PM 37.0572 -88.4881 288° West 223 257 3,600 -660 Descending Memphis Center
10:26PM 37.0731 -88.5681 284° West 228 262 2,800 -600 Descending Memphis Center
10:27PM 37.0847 -88.6458 281° West 228 262 2,500 -300 Descending Memphis Center
10:28PM 37.0961 -88.7158 282° West 228 262 2,300 -600 Descending Memphis Center
10:29PM 37.0903 -88.7653 262° West 198 228 1,400 840 Descending Memphis Center
10:30PM 37.0975 -88.8381 277° West 198 228 4,000 2,580 Climbing Memphis Center